createdAt,value
2019-03-28T00:02:42.510Z,9.98
2019-03-28T00:05:28.804Z,9.53
2019-03-28T00:08:14.870Z,10.03
2019-03-28T00:11:02.329Z,10.03
2019-03-28T00:13:48.201Z,10.48
2019-03-28T00:16:34.711Z,10.38
2019-03-28T00:22:06.344Z,9.80
2019-03-28T00:24:59.151Z,10.70
2019-03-28T00:27:45.067Z,10.03
2019-03-28T00:30:31.567Z,9.38
2019-03-28T00:33:18.393Z,10.35
2019-03-28T00:36:04.382Z,10.20
2019-03-28T00:38:50.324Z,10.48
2019-03-28T00:41:36.748Z,10.68
2019-03-28T00:44:22.720Z,11.25
2019-03-28T00:47:09.071Z,11.05
2019-03-28T00:49:55.567Z,11.43
2019-03-28T00:52:41.977Z,10.48
2019-03-28T00:55:27.843Z,11.12
2019-03-28T00:58:13.783Z,11.40
2019-03-28T01:00:59.958Z,11.45
2019-03-28T01:03:46.165Z,11.60
2019-03-28T01:06:32.271Z,11.22
2019-03-28T01:09:18.608Z,11.65
2019-03-28T01:12:04.444Z,11.90
2019-03-28T01:14:50.863Z,12.55
2019-03-28T01:17:36.803Z,11.83
2019-03-28T01:20:22.562Z,11.25
2019-03-28T01:25:53.828Z,11.63
2019-03-28T01:28:39.641Z,11.28
2019-03-28T01:31:25.791Z,11.88
2019-03-28T01:34:12.023Z,11.95
2019-03-28T01:39:43.349Z,11.45
2019-03-28T01:42:29.045Z,11.43
2019-03-28T01:45:15.110Z,12.15
2019-03-28T01:48:00.929Z,12.70
2019-03-28T01:50:46.992Z,11.85
2019-03-28T01:53:33.412Z,12.55
2019-03-28T01:56:19.236Z,12.75
2019-03-28T01:59:05.281Z,13.03
2019-03-28T02:01:51.750Z,12.07
2019-03-28T02:04:38.120Z,12.58
2019-03-28T02:07:25.180Z,12.18
2019-03-28T02:10:11.811Z,12.80
2019-03-28T02:12:57.828Z,11.35
2019-03-28T02:18:29.407Z,10.70
2019-03-28T02:21:15.686Z,12.40
2019-03-28T02:24:01.472Z,12.18
2019-03-28T02:26:47.344Z,11.53
2019-03-28T02:32:19.852Z,10.80
2019-03-28T02:35:05.670Z,12.45
2019-03-28T02:37:52.238Z,11.60
2019-03-28T02:40:38.292Z,13.15
2019-03-28T02:43:24.238Z,13.05
2019-03-28T02:46:10.482Z,12.90
2019-03-28T02:48:56.429Z,12.88
2019-03-28T02:51:43.072Z,12.93
2019-03-28T02:54:29.195Z,13.18
2019-03-28T02:57:15.281Z,12.63
2019-03-28T03:00:01.678Z,13.13
2019-03-28T03:02:47.554Z,12.33
2019-03-28T03:05:33.813Z,13.18
2019-03-28T03:11:05.808Z,12.20
2019-03-28T03:13:51.795Z,13.43
2019-03-28T03:16:37.536Z,12.58
2019-03-28T03:19:23.430Z,14.03
2019-03-28T03:22:10.062Z,13.48
2019-03-28T03:24:58.474Z,13.83
2019-03-28T03:27:56.933Z,12.53
2019-03-28T03:30:32.320Z,13.62
2019-03-28T03:33:18.502Z,13.00
2019-03-28T03:36:04.820Z,13.18
2019-03-28T03:38:50.799Z,12.90
2019-03-28T03:41:37.126Z,12.82
2019-03-28T03:44:23.561Z,14.15
2019-03-28T03:47:09.369Z,12.15
2019-03-28T03:49:56.432Z,13.65
2019-03-28T03:52:42.752Z,12.75
2019-03-28T03:55:30.004Z,13.40
2019-03-28T03:58:17.876Z,13.20
2019-03-28T04:01:03.958Z,13.53
2019-03-28T04:03:49.963Z,12.70
2019-03-28T04:06:36.346Z,14.15
2019-03-28T04:09:22.695Z,13.08
2019-03-28T04:12:09.390Z,12.55
2019-03-28T04:14:55.183Z,12.15
2019-03-28T04:17:41.502Z,13.05
2019-03-28T04:20:27.347Z,12.53
2019-03-28T04:23:13.261Z,13.78
2019-03-28T04:25:59.665Z,12.70
2019-03-28T04:28:45.608Z,12.88
2019-03-28T04:31:31.983Z,11.78
2019-03-28T04:34:17.848Z,12.15
2019-03-28T04:37:03.693Z,11.43
2019-03-28T04:39:49.452Z,11.60
2019-03-28T04:45:21.275Z,10.05
2019-03-28T04:48:07.200Z,10.20
2019-03-28T04:50:56.096Z,11.10
2019-03-28T04:53:42.553Z,10.75
2019-03-28T04:56:28.463Z,10.30
2019-03-28T04:59:14.837Z,9.68
2019-03-28T05:02:03.636Z,10.28
2019-03-28T05:04:49.611Z,9.55
2019-03-28T05:07:35.927Z,9.45
2019-03-28T05:10:23.311Z,9.45
2019-03-28T05:13:13.898Z,9.38
2019-03-28T05:16:00.060Z,9.70
2019-03-28T05:18:45.883Z,8.83
2019-03-28T05:21:31.900Z,8.80
2019-03-28T05:24:18.298Z,8.98
2019-03-28T05:27:04.187Z,8.15
2019-03-28T05:29:49.983Z,8.78
2019-03-28T05:32:35.985Z,8.13
2019-03-28T05:35:21.876Z,8.28
2019-03-28T05:38:07.818Z,8.53
2019-03-28T05:40:53.605Z,8.23
2019-03-28T05:43:39.560Z,8.05
2019-03-28T05:46:25.566Z,7.83
2019-03-28T05:49:11.403Z,7.92
2019-03-28T05:51:57.297Z,7.67
2019-03-28T05:54:43.639Z,7.67
2019-03-28T05:57:29.495Z,8.05
2019-03-28T06:00:16.031Z,7.53
2019-03-28T06:03:02.284Z,7.12
2019-03-28T06:05:48.519Z,8.43
2019-03-28T06:08:34.683Z,7.08
2019-03-28T06:11:20.835Z,7.22
2019-03-28T06:14:06.796Z,7.60
2019-03-28T06:16:53.292Z,6.83
2019-03-28T06:19:39.381Z,7.25
2019-03-28T06:22:25.338Z,6.80
2019-03-28T06:25:11.422Z,6.70
2019-03-28T06:27:57.377Z,7.05
2019-03-28T06:30:44.437Z,7.28
2019-03-28T06:33:30.695Z,6.65
2019-03-28T06:36:16.459Z,6.87
2019-03-28T06:39:02.935Z,6.70
2019-03-28T06:41:48.818Z,7.03
2019-03-28T06:44:35.089Z,8.80
2019-03-28T06:47:22.090Z,8.28
2019-03-28T06:50:09.347Z,8.28
2019-03-28T06:52:55.391Z,8.73
2019-03-28T06:55:41.447Z,8.33
2019-03-28T06:58:27.286Z,8.10
2019-03-28T07:01:13.238Z,8.38
2019-03-28T07:03:59.204Z,9.48
2019-03-28T07:06:45.139Z,10.32
2019-03-28T07:09:31.599Z,9.20
2019-03-28T07:12:18.392Z,9.30
2019-03-28T07:15:04.737Z,9.63
2019-03-28T07:17:51.105Z,9.60
2019-03-28T07:20:37.934Z,8.83
2019-03-28T07:23:24.043Z,9.68
2019-03-28T07:26:10.680Z,9.35
2019-03-28T07:28:57.003Z,9.45
2019-03-28T07:31:43.219Z,9.13
2019-03-28T07:34:29.518Z,10.38
2019-03-28T07:37:15.397Z,9.55
2019-03-28T07:40:01.772Z,10.45
2019-03-28T07:42:48.285Z,15.03
2019-03-28T07:45:34.746Z,12.85
2019-03-28T07:48:21.260Z,12.35
2019-03-28T07:51:07.262Z,13.72
2019-03-28T07:53:53.271Z,12.88
2019-03-28T07:56:39.167Z,12.37
2019-03-28T07:59:25.596Z,11.38
2019-03-28T08:02:11.865Z,11.80
2019-03-28T08:04:57.824Z,11.95
2019-03-28T08:07:45.732Z,10.58
2019-03-28T08:10:31.647Z,11.10
2019-03-28T08:16:02.948Z,9.55
2019-03-28T08:18:48.703Z,10.78
2019-03-28T08:21:34.863Z,10.80
2019-03-28T08:24:21.023Z,10.38
2019-03-28T08:27:07.375Z,9.70
2019-03-28T08:29:53.353Z,10.65
2019-03-28T08:32:40.097Z,9.88
2019-03-28T08:35:26.512Z,9.15
2019-03-28T08:38:12.530Z,9.30
2019-03-28T08:40:58.509Z,9.90
2019-03-28T08:43:45.303Z,10.28
2019-03-28T08:46:31.542Z,8.73
2019-03-28T08:49:17.818Z,8.33
2019-03-28T08:52:04.279Z,8.80
2019-03-28T08:54:50.109Z,8.03
2019-03-28T08:57:36.431Z,8.10
2019-03-28T09:00:33.061Z,8.35
2019-03-28T09:03:10.147Z,8.53
2019-03-28T09:05:56.188Z,8.38
2019-03-28T09:08:42.404Z,7.65
2019-03-28T09:11:28.520Z,7.33
2019-03-28T09:14:14.896Z,7.15
2019-03-28T09:17:00.892Z,7.17
2019-03-28T09:19:46.700Z,7.47
2019-03-28T09:25:18.139Z,6.20
2019-03-28T09:28:04.064Z,6.50
2019-03-28T09:30:50.584Z,6.90
2019-03-28T09:33:36.789Z,7.42
2019-03-28T09:36:22.579Z,6.40
2019-03-28T09:39:08.360Z,6.15
2019-03-28T09:41:54.101Z,6.28
2019-03-28T09:44:43.047Z,6.12
2019-03-28T09:47:30.297Z,6.10
2019-03-28T09:50:16.459Z,5.83
2019-03-28T09:53:02.297Z,5.90
2019-03-28T09:55:48.168Z,6.22
2019-03-28T09:58:34.366Z,5.97
2019-03-28T10:04:06.574Z,4.97
2019-03-28T10:06:52.914Z,5.55
2019-03-28T10:09:39.220Z,5.50
2019-03-28T10:12:25.227Z,5.67
2019-03-28T10:15:11.631Z,5.35
2019-03-28T10:17:59.734Z,5.60
2019-03-28T10:20:45.471Z,5.10
2019-03-28T10:23:31.264Z,4.60
2019-03-28T10:26:17.410Z,4.83
2019-03-28T10:29:03.146Z,5.10
2019-03-28T10:31:52.111Z,4.92
2019-03-28T10:34:38.028Z,4.40
2019-03-28T10:37:23.735Z,4.78
2019-03-28T10:40:09.708Z,4.22
2019-03-28T10:42:55.683Z,4.50
2019-03-28T10:45:41.725Z,4.62
2019-03-28T10:48:27.719Z,4.62
2019-03-28T10:51:13.671Z,4.15
2019-03-28T10:53:59.600Z,4.50
2019-03-28T10:56:52.001Z,4.08
2019-03-28T10:59:33.884Z,4.10
2019-03-28T11:02:19.732Z,4.10
2019-03-28T11:05:05.811Z,4.17
2019-03-28T11:07:52.126Z,4.35
2019-03-28T11:10:38.119Z,3.83
2019-03-28T11:13:24.341Z,3.75
2019-03-28T11:16:10.741Z,4.35
2019-03-28T11:18:57.049Z,3.77
2019-03-28T11:21:43.167Z,4.28
2019-03-28T11:24:28.952Z,3.87
2019-03-28T11:30:00.425Z,3.40
2019-03-28T11:32:46.499Z,3.72
2019-03-28T11:35:32.885Z,3.60
2019-03-28T11:38:19.103Z,3.45
2019-03-28T11:41:05.208Z,3.30
2019-03-28T11:43:51.073Z,3.52
2019-03-28T11:46:37.377Z,3.40
2019-03-28T11:49:23.979Z,3.62
2019-03-28T11:52:09.855Z,3.10
2019-03-28T11:54:56.423Z,3.33
2019-03-28T11:57:42.504Z,3.30
2019-03-28T12:00:29.491Z,3.87
2019-03-28T12:03:15.486Z,3.47
2019-03-28T12:06:01.900Z,3.10
2019-03-28T12:08:48.177Z,3.65
2019-03-28T12:14:19.400Z,3.22
2019-03-28T12:17:05.176Z,3.25
2019-03-28T12:19:52.230Z,2.98
2019-03-28T12:22:41.474Z,2.90
2019-03-28T12:25:27.243Z,2.95
2019-03-28T12:30:58.477Z,2.25
2019-03-28T12:33:44.222Z,3.20
2019-03-28T12:36:30.345Z,2.98
2019-03-28T12:39:16.552Z,3.47
2019-03-28T12:42:02.486Z,3.12
2019-03-28T12:44:57.034Z,3.02
2019-03-28T12:47:42.327Z,3.00
2019-03-28T12:50:24.338Z,2.72
2019-03-28T12:53:12.617Z,2.70
2019-03-28T12:55:58.857Z,2.95
2019-03-28T12:58:44.714Z,2.92
2019-03-28T13:04:16.511Z,2.62
2019-03-28T13:07:02.697Z,2.87
2019-03-28T13:09:49.312Z,2.85
2019-03-28T13:12:38.191Z,2.75
2019-03-28T13:15:34.898Z,2.85
2019-03-28T13:18:21.570Z,2.87
2019-03-28T13:21:13.833Z,2.52
2019-03-28T13:23:57.731Z,2.80
2019-03-28T13:26:46.119Z,2.95
2019-03-28T13:29:32.545Z,2.72
2019-03-28T13:32:23.106Z,2.80
2019-03-28T13:35:09.495Z,2.90
2019-03-28T13:37:58.138Z,3.02
2019-03-28T13:40:44.789Z,3.10
2019-03-28T13:43:32.137Z,2.77
2019-03-28T13:46:22.602Z,3.10
2019-03-28T13:49:08.666Z,5.00
2019-03-28T13:51:55.082Z,4.55
2019-03-28T13:54:41.704Z,3.98
2019-03-28T13:57:27.936Z,3.77
2019-03-28T14:00:14.790Z,3.70
2019-03-28T14:03:01.805Z,3.85
2019-03-28T14:05:47.889Z,4.67
2019-03-28T14:08:33.781Z,4.17
2019-03-28T14:11:20.613Z,4.42
2019-03-28T14:14:06.697Z,4.20
2019-03-28T14:16:53.341Z,3.80
2019-03-28T14:19:39.827Z,4.08
2019-03-28T14:22:26.713Z,3.85
2019-03-28T14:25:12.660Z,3.37
2019-03-28T14:27:59.097Z,3.30
2019-03-28T14:30:44.857Z,3.15
2019-03-28T14:33:31.211Z,3.22
2019-03-28T14:36:18.516Z,3.35
2019-03-28T14:39:06.386Z,3.45
2019-03-28T14:41:52.586Z,3.15
2019-03-28T14:44:38.541Z,3.33
2019-03-28T14:47:24.426Z,3.12
2019-03-28T14:50:10.566Z,2.77
2019-03-28T14:52:56.923Z,2.90
2019-03-28T14:55:43.030Z,2.85
2019-03-28T14:58:29.034Z,2.70
2019-03-28T15:01:14.839Z,2.83
2019-03-28T15:04:00.572Z,5.92
2019-03-28T15:06:46.570Z,4.42
2019-03-28T15:09:32.555Z,4.22
2019-03-28T15:12:18.322Z,4.05
2019-03-28T15:15:04.436Z,3.55
2019-03-28T15:17:50.470Z,3.72
2019-03-28T15:20:36.588Z,3.77
2019-03-28T15:23:22.393Z,4.00
2019-03-28T15:26:08.336Z,3.80
2019-03-28T15:28:54.218Z,3.85
2019-03-28T15:31:40.045Z,3.20
2019-03-28T15:34:25.947Z,3.00
2019-03-28T15:37:11.818Z,3.37
2019-03-28T15:39:57.730Z,3.47
2019-03-28T15:42:44.495Z,3.47
2019-03-28T15:45:30.967Z,3.00
2019-03-28T15:48:16.824Z,3.22
2019-03-28T15:53:48.266Z,3.37
2019-03-28T15:56:34.084Z,3.08
2019-03-28T15:59:19.920Z,3.30
2019-03-28T16:02:05.862Z,3.30
2019-03-28T16:07:37.155Z,3.10
2019-03-28T16:10:23.119Z,3.75
2019-03-28T16:13:08.980Z,4.12
2019-03-28T16:15:54.999Z,3.52
2019-03-28T16:21:26.933Z,3.35
2019-03-28T16:24:12.937Z,3.62
2019-03-28T16:26:59.227Z,4.50
2019-03-28T16:29:44.949Z,3.92
2019-03-28T16:32:30.875Z,3.27
2019-03-28T16:35:16.843Z,3.12
2019-03-28T16:38:02.714Z,3.65
2019-03-28T16:40:48.634Z,3.83
2019-03-28T16:43:34.516Z,3.70
2019-03-28T16:46:20.248Z,3.67
2019-03-28T16:49:06.396Z,3.52
2019-03-28T16:51:52.286Z,3.65
2019-03-28T16:54:38.198Z,3.60
2019-03-28T16:57:24.068Z,3.62
2019-03-28T17:00:10.717Z,3.37
2019-03-28T17:02:56.551Z,3.80
2019-03-28T17:05:42.330Z,3.87
2019-03-28T17:08:28.459Z,3.70
2019-03-28T17:11:14.681Z,2.98
2019-03-28T17:14:00.569Z,3.52
2019-03-28T17:16:46.424Z,3.40
2019-03-28T17:19:32.286Z,4.25
2019-03-28T17:22:18.249Z,3.55
2019-03-28T17:27:49.457Z,3.35
2019-03-28T17:30:35.453Z,3.65
2019-03-28T17:33:21.492Z,4.55
2019-03-28T17:36:07.309Z,3.87
2019-03-28T17:41:38.599Z,3.33
2019-03-28T17:44:24.363Z,3.60
2019-03-28T17:49:56.731Z,3.37
2019-03-28T17:52:42.688Z,3.10
2019-03-28T17:55:29.722Z,4.00
2019-03-28T17:58:15.961Z,3.60
2019-03-28T18:01:01.796Z,4.58
2019-03-28T18:03:47.677Z,3.77
2019-03-28T18:06:34.885Z,3.90
2019-03-28T18:09:21.427Z,3.62
2019-03-28T18:12:07.101Z,3.95
2019-03-28T18:14:53.025Z,3.70
2019-03-28T18:20:24.339Z,3.87
2019-03-28T18:23:10.201Z,4.60
2019-03-28T18:25:55.988Z,4.30
2019-03-28T18:28:41.929Z,4.35
2019-03-28T18:34:13.238Z,4.33
2019-03-28T18:39:44.603Z,4.53
2019-03-28T18:42:31.035Z,4.00
2019-03-28T18:45:17.976Z,4.20
2019-03-28T18:48:03.944Z,4.28
2019-03-28T18:50:49.771Z,3.92
2019-03-28T18:53:36.265Z,4.67
2019-03-28T18:56:22.618Z,4.75
2019-03-28T18:59:10.181Z,4.08
2019-03-28T19:01:56.071Z,4.15
2019-03-28T19:04:42.143Z,3.95
2019-03-28T19:07:29.285Z,3.95
2019-03-28T19:10:15.481Z,4.17
2019-03-28T19:13:04.560Z,4.12
2019-03-28T19:15:49.984Z,4.53
2019-03-28T19:18:36.434Z,4.35
2019-03-28T19:21:23.889Z,4.17
2019-03-28T19:24:11.675Z,4.12
2019-03-28T19:26:57.945Z,4.45
2019-03-28T19:29:44.515Z,4.35
2019-03-28T19:32:30.877Z,4.12
2019-03-28T19:38:02.152Z,4.37
2019-03-28T19:40:48.037Z,4.20
2019-03-28T19:43:33.972Z,4.55
2019-03-28T19:46:19.984Z,3.77
2019-03-28T19:49:05.940Z,4.55
2019-03-28T19:51:51.838Z,4.45
2019-03-28T19:54:37.955Z,4.85
2019-03-28T19:57:26.321Z,4.80
2019-03-28T20:00:12.042Z,4.55
2019-03-28T20:03:00.390Z,4.17
2019-03-28T20:05:47.938Z,4.67
2019-03-28T20:08:33.884Z,4.65
2019-03-28T20:11:20.353Z,4.78
2019-03-28T20:14:06.565Z,4.40
2019-03-28T20:16:53.804Z,4.37
2019-03-28T20:19:39.977Z,5.20
2019-03-28T20:22:28.333Z,4.62
2019-03-28T20:25:17.248Z,5.28
2019-03-28T20:28:03.310Z,5.40
2019-03-28T20:30:49.986Z,4.92
2019-03-28T20:33:38.076Z,5.20
2019-03-28T20:36:37.013Z,5.35
2019-03-28T20:39:11.809Z,5.08
2019-03-28T20:41:57.889Z,5.42
2019-03-28T20:44:44.747Z,5.67
2019-03-28T20:47:31.187Z,5.33
2019-03-28T20:50:17.923Z,5.17
2019-03-28T20:53:04.783Z,5.53
2019-03-28T20:55:53.519Z,5.40
2019-03-28T20:58:39.814Z,5.40
2019-03-28T21:01:26.084Z,5.47
2019-03-28T21:04:11.843Z,5.75
2019-03-28T21:06:57.854Z,5.83
2019-03-28T21:09:43.686Z,5.45
2019-03-28T21:12:29.384Z,5.70
2019-03-28T21:15:15.341Z,5.45
2019-03-28T21:18:01.300Z,5.42
2019-03-28T21:20:47.813Z,5.20
2019-03-28T21:26:20.040Z,5.20
2019-03-28T21:29:11.631Z,6.00
2019-03-28T21:32:00.101Z,5.75
2019-03-28T21:34:46.999Z,5.35
2019-03-28T21:37:34.465Z,4.70
2019-03-28T21:40:20.471Z,4.65
2019-03-28T21:43:07.910Z,5.30
2019-03-28T21:45:55.336Z,5.42
2019-03-28T21:48:45.089Z,4.92
2019-03-28T21:51:33.189Z,5.20
2019-03-28T21:54:19.388Z,5.53
2019-03-28T21:57:05.361Z,5.28
2019-03-28T21:59:51.630Z,5.00
2019-03-28T22:02:37.720Z,4.72
2019-03-28T22:05:28.483Z,5.37
2019-03-28T22:08:15.314Z,5.22
2019-03-28T22:11:02.031Z,5.35
2019-03-28T22:13:48.476Z,5.17
2019-03-28T22:16:35.361Z,5.12
2019-03-28T22:19:26.083Z,5.42
2019-03-28T22:22:14.920Z,4.90
2019-03-28T22:25:02.412Z,5.70
2019-03-28T22:27:51.451Z,5.05
2019-03-28T22:30:38.862Z,5.80
2019-03-28T22:33:27.845Z,6.47
2019-03-28T22:36:24.410Z,5.47
2019-03-28T22:39:10.297Z,5.30
2019-03-28T22:41:58.179Z,6.12
2019-03-28T22:44:44.762Z,5.65
2019-03-28T22:47:34.795Z,5.67
2019-03-28T22:50:18.950Z,5.60
2019-03-28T22:53:04.907Z,5.97
2019-03-28T22:55:50.580Z,5.20
2019-03-28T22:58:36.568Z,5.78
2019-03-28T23:01:24.601Z,6.35
2019-03-28T23:04:10.604Z,6.03
2019-03-28T23:07:10.114Z,5.78
2019-03-28T23:09:45.260Z,5.78
2019-03-28T23:12:34.096Z,6.03
2019-03-28T23:15:22.110Z,5.78
2019-03-28T23:18:08.802Z,6.42
2019-03-28T23:20:54.859Z,5.90
2019-03-28T23:23:41.131Z,6.12
2019-03-28T23:26:27.362Z,6.00
2019-03-28T23:29:14.048Z,6.60
2019-03-28T23:32:00.115Z,6.08
2019-03-28T23:34:46.062Z,6.20
2019-03-28T23:37:32.017Z,6.60
2019-03-28T23:40:18.628Z,6.10
2019-03-28T23:43:04.556Z,6.55
2019-03-28T23:45:50.826Z,5.75
2019-03-28T23:48:39.526Z,6.08
2019-03-28T23:51:25.826Z,6.47
2019-03-28T23:54:12.748Z,6.08
2019-03-28T23:56:58.901Z,5.95
2019-03-28T23:59:44.742Z,6.40
